createdAt,value
2023-04-02T00:02:25.493Z,1001.8
2023-04-02T00:17:59.856Z,1002.2
2023-04-02T00:33:34.114Z,1002.6
2023-04-02T00:49:08.100Z,1003
2023-04-02T01:04:42.070Z,1003.3
2023-04-02T01:20:16.181Z,1003.6
2023-04-02T01:35:50.136Z,1003.9
2023-04-02T01:51:24.315Z,1004.2
2023-04-02T02:06:58.259Z,1004.4
2023-04-02T02:22:32.185Z,1004.9
2023-04-02T02:38:06.128Z,1005.3
2023-04-02T02:53:40.119Z,1005.7
2023-04-02T03:09:14.063Z,1006.1
2023-04-02T03:24:48.024Z,1006.3
2023-04-02T03:40:21.958Z,1006.5
2023-04-02T03:55:55.865Z,1006.8
2023-04-02T04:11:29.813Z,1007.2
2023-04-02T04:27:04.174Z,1007.6
2023-04-02T04:42:38.381Z,1008
2023-04-02T04:58:12.403Z,1008.5
2023-04-02T05:13:46.294Z,1008.8
2023-04-02T05:29:20.204Z,1009.1
2023-04-02T05:44:54.087Z,1009.3
2023-04-02T06:00:28.060Z,1009.7
2023-04-02T06:16:02.010Z,1010.1
2023-04-02T06:31:36.164Z,1010.3
2023-04-02T06:47:10.126Z,1010.7
2023-04-02T07:02:44.318Z,1011.2
2023-04-02T07:18:18.444Z,1011.4
2023-04-02T07:33:52.388Z,1011.7
2023-04-02T07:49:26.312Z,1012.1
2023-04-02T08:05:00.260Z,1012.3
2023-04-02T08:20:34.154Z,1012.6
2023-04-02T08:36:08.576Z,1013
2023-04-02T08:51:42.497Z,1013.2
2023-04-02T09:07:16.408Z,1013.5
2023-04-02T09:22:50.360Z,1013.8
2023-04-02T09:38:24.247Z,1014
2023-04-02T09:53:58.209Z,1014.3
2023-04-02T10:09:32.260Z,1014.6
2023-04-02T10:25:06.173Z,1014.8
2023-04-02T10:40:40.064Z,1015
2023-04-02T10:56:14.010Z,1015.3
2023-04-02T11:11:59.490Z,1015.5
2023-04-02T11:27:33.393Z,1015.6
2023-04-02T11:43:07.419Z,1015.7
2023-04-02T11:58:41.637Z,1015.9
2023-04-02T12:14:15.575Z,1016.1
2023-04-02T12:29:49.514Z,1016.3
2023-04-02T12:45:23.442Z,1016.5
2023-04-02T13:00:57.570Z,1016.5
2023-04-02T13:16:31.865Z,1016.6
2023-04-02T13:32:05.869Z,1016.7
2023-04-02T13:47:41.211Z,1016.8
2023-04-02T14:03:15.486Z,1016.9
2023-04-02T14:18:49.405Z,1017.1
2023-04-02T14:34:23.380Z,1017.1
2023-04-02T14:49:57.339Z,1017.2
2023-04-02T15:05:31.306Z,1017.3
2023-04-02T15:21:05.855Z,1017.4
2023-04-02T15:36:50.387Z,1017.4
2023-04-02T15:52:24.313Z,1017.7
2023-04-02T16:07:58.246Z,1017.7
2023-04-02T16:23:32.219Z,1017.9
2023-04-02T16:39:06.180Z,1018
2023-04-02T16:54:40.175Z,1018.2
2023-04-02T17:10:14.905Z,1018.3
2023-04-02T17:25:48.868Z,1018.4
2023-04-02T17:41:22.809Z,1018.6
2023-04-02T17:56:56.765Z,1018.8
2023-04-02T18:12:30.947Z,1019
2023-04-02T18:28:05.123Z,1019.3
2023-04-02T18:43:39.089Z,1019.5
2023-04-02T18:59:13.127Z,1019.7
2023-04-02T19:14:47.065Z,1019.9
2023-04-02T19:30:21.016Z,1020
2023-04-02T19:45:55.052Z,1020.2
2023-04-02T20:01:29.329Z,1020.2
2023-04-02T20:17:03.427Z,1020.4
2023-04-02T20:32:38.161Z,1020.5
2023-04-02T20:48:13.076Z,1020.7
2023-04-02T21:03:47.120Z,1020.9
2023-04-02T21:19:21.112Z,1021.2
2023-04-02T21:34:55.110Z,1021.4
2023-04-02T21:50:29.069Z,1021.6
2023-04-02T22:06:03.204Z,1021.7
2023-04-02T22:21:37.187Z,1021.9
2023-04-02T22:37:11.120Z,1022.1
2023-04-02T22:52:45.000Z,1022
2023-04-02T23:08:18.921Z,1022.3
2023-04-02T23:23:52.810Z,1022.5
2023-04-02T23:39:26.704Z,1022.6
2023-04-02T23:55:00.594Z,1022.6
